sensor_id;sensor_type;location;lat;lon;timestamp;temperature;humidity
11700;DHT22;5906;51.660;6.674;2023-04-15T00:01:51;7.90;99.90
11700;DHT22;5906;51.660;6.674;2023-04-15T00:04:18;8.00;99.90
11700;DHT22;5906;51.660;6.674;2023-04-15T00:06:50;7.80;99.90
11700;DHT22;5906;51.660;6.674;2023-04-15T00:09:19;7.80;99.90
11700;DHT22;5906;51.660;6.674;2023-04-15T00:11:46;7.70;99.90
11700;DHT22;5906;51.660;6.674;2023-04-15T00:14:13;7.70;99.90
11700;DHT22;5906;51.660;6.674;2023-04-15T00:16:41;7.60;99.90
11700;DHT22;5906;51.660;6.674;2023-04-15T00:19:08;7.60;99.90
11700;DHT22;5906;51.660;6.674;2023-04-15T00:21:35;7.60;99.90
11700;DHT22;5906;51.660;6.674;2023-04-15T00:24:02;7.60;99.90
11700;DHT22;5906;51.660;6.674;2023-04-15T00:26:29;7.60;99.90
11700;DHT22;5906;51.660;6.674;2023-04-15T00:28:56;7.50;99.90
11700;DHT22;5906;51.660;6.674;2023-04-15T00:31:24;7.50;99.90
11700;DHT22;5906;51.660;6.674;2023-04-15T00:33:51;7.50;99.90
11700;DHT22;5906;51.660;6.674;2023-04-15T00:36:18;7.50;99.90
11700;DHT22;5906;51.660;6.674;2023-04-15T00:38:45;7.50;99.90
11700;DHT22;5906;51.660;6.674;2023-04-15T00:41:13;7.50;99.90
11700;DHT22;5906;51.660;6.674;2023-04-15T00:43:40;7.60;99.90
11700;DHT22;5906;51.660;6.674;2023-04-15T00:46:08;7.40;99.90
11700;DHT22;5906;51.660;6.674;2023-04-15T00:48:36;7.50;99.90
11700;DHT22;5906;51.660;6.674;2023-04-15T00:51:04;7.50;99.90
11700;DHT22;5906;51.660;6.674;2023-04-15T00:53:32;7.50;99.90
11700;DHT22;5906;51.660;6.674;2023-04-15T00:55:59;7.40;99.90
11700;DHT22;5906;51.660;6.674;2023-04-15T00:58:26;7.40;99.90
11700;DHT22;5906;51.660;6.674;2023-04-15T01:00:56;7.40;99.90
11700;DHT22;5906;51.660;6.674;2023-04-15T01:03:24;7.30;99.90
11700;DHT22;5906;51.660;6.674;2023-04-15T01:05:51;7.20;99.90
11700;DHT22;5906;51.660;6.674;2023-04-15T01:08:29;7.30;99.90
11700;DHT22;5906;51.660;6.674;2023-04-15T01:10:58;7.20;99.90
11700;DHT22;5906;51.660;6.674;2023-04-15T01:13:27;7.20;99.90
11700;DHT22;5906;51.660;6.674;2023-04-15T01:15:55;7.20;99.90
11700;DHT22;5906;51.660;6.674;2023-04-15T01:18:23;7.30;99.90
11700;DHT22;5906;51.660;6.674;2023-04-15T01:20:50;7.30;99.90
11700;DHT22;5906;51.660;6.674;2023-04-15T01:23:17;7.30;99.90
11700;DHT22;5906;51.660;6.674;2023-04-15T01:25:44;7.30;99.90
11700;DHT22;5906;51.660;6.674;2023-04-15T01:28:13;7.20;99.90
11700;DHT22;5906;51.660;6.674;2023-04-15T01:30:40;7.20;99.90
11700;DHT22;5906;51.660;6.674;2023-04-15T01:33:07;7.20;99.90
11700;DHT22;5906;51.660;6.674;2023-04-15T01:35:34;7.10;99.90
11700;DHT22;5906;51.660;6.674;2023-04-15T01:38:08;7.00;99.90
11700;DHT22;5906;51.660;6.674;2023-04-15T01:40:35;6.90;99.90
11700;DHT22;5906;51.660;6.674;2023-04-15T01:43:02;6.80;99.90
11700;DHT22;5906;51.660;6.674;2023-04-15T01:45:29;6.80;99.90
11700;DHT22;5906;51.660;6.674;2023-04-15T01:47:57;6.80;99.90
11700;DHT22;5906;51.660;6.674;2023-04-15T01:50:24;6.70;99.90
11700;DHT22;5906;51.660;6.674;2023-04-15T01:52:51;6.70;99.90
11700;DHT22;5906;51.660;6.674;2023-04-15T01:55:19;6.60;99.90
11700;DHT22;5906;51.660;6.674;2023-04-15T01:57:46;6.70;99.90
11700;DHT22;5906;51.660;6.674;2023-04-15T02:00:13;6.60;99.90
11700;DHT22;5906;51.660;6.674;2023-04-15T02:02:40;6.50;99.90
11700;DHT22;5906;51.660;6.674;2023-04-15T02:05:08;6.50;99.90
11700;DHT22;5906;51.660;6.674;2023-04-15T02:07:35;6.50;99.90
11700;DHT22;5906;51.660;6.674;2023-04-15T02:10:02;6.50;99.90
11700;DHT22;5906;51.660;6.674;2023-04-15T02:12:29;6.50;99.90
11700;DHT22;5906;51.660;6.674;2023-04-15T02:14:56;6.40;99.90
11700;DHT22;5906;51.660;6.674;2023-04-15T02:17:23;6.40;99.90
11700;DHT22;5906;51.660;6.674;2023-04-15T02:19:51;6.40;99.90
11700;DHT22;5906;51.660;6.674;2023-04-15T02:22:18;6.40;99.90
11700;DHT22;5906;51.660;6.674;2023-04-15T02:24:45;6.40;99.90
11700;DHT22;5906;51.660;6.674;2023-04-15T02:27:16;6.30;99.90
11700;DHT22;5906;51.660;6.674;2023-04-15T02:29:46;6.20;99.90
11700;DHT22;5906;51.660;6.674;2023-04-15T02:32:13;6.10;99.90
11700;DHT22;5906;51.660;6.674;2023-04-15T02:34:40;6.10;99.90
11700;DHT22;5906;51.660;6.674;2023-04-15T02:37:10;6.00;99.90
11700;DHT22;5906;51.660;6.674;2023-04-15T02:39:37;6.00;99.90
11700;DHT22;5906;51.660;6.674;2023-04-15T02:42:04;5.90;99.90
11700;DHT22;5906;51.660;6.674;2023-04-15T02:44:32;6.00;99.90
11700;DHT22;5906;51.660;6.674;2023-04-15T02:47:00;5.90;99.90
11700;DHT22;5906;51.660;6.674;2023-04-15T02:49:27;5.90;99.90
11700;DHT22;5906;51.660;6.674;2023-04-15T02:51:56;5.90;99.90
11700;DHT22;5906;51.660;6.674;2023-04-15T02:54:24;5.80;99.90
11700;DHT22;5906;51.660;6.674;2023-04-15T02:56:51;5.70;99.90
11700;DHT22;5906;51.660;6.674;2023-04-15T02:59:21;5.60;99.90
11700;DHT22;5906;51.660;6.674;2023-04-15T03:01:48;5.60;99.90
11700;DHT22;5906;51.660;6.674;2023-04-15T03:04:15;5.60;99.90
11700;DHT22;5906;51.660;6.674;2023-04-15T03:06:42;5.60;99.90
11700;DHT22;5906;51.660;6.674;2023-04-15T03:09:09;5.50;99.90
11700;DHT22;5906;51.660;6.674;2023-04-15T03:11:37;5.60;99.90
11700;DHT22;5906;51.660;6.674;2023-04-15T03:14:06;5.50;99.90
11700;DHT22;5906;51.660;6.674;2023-04-15T03:16:33;5.50;99.90
11700;DHT22;5906;51.660;6.674;2023-04-15T03:18:59;5.60;99.90
11700;DHT22;5906;51.660;6.674;2023-04-15T03:21:26;5.60;99.90
11700;DHT22;5906;51.660;6.674;2023-04-15T03:23:53;5.60;99.90
11700;DHT22;5906;51.660;6.674;2023-04-15T03:26:30;5.60;99.90
11700;DHT22;5906;51.660;6.674;2023-04-15T03:28:57;5.70;99.90
11700;DHT22;5906;51.660;6.674;2023-04-15T03:31:24;5.80;99.90
11700;DHT22;5906;51.660;6.674;2023-04-15T03:33:51;5.80;99.90
11700;DHT22;5906;51.660;6.674;2023-04-15T03:36:18;5.80;99.90
11700;DHT22;5906;51.660;6.674;2023-04-15T03:38:45;5.70;99.90
11700;DHT22;5906;51.660;6.674;2023-04-15T03:41:11;5.70;99.90
11700;DHT22;5906;51.660;6.674;2023-04-15T03:43:38;5.60;99.90
11700;DHT22;5906;51.660;6.674;2023-04-15T03:46:05;5.60;99.90
11700;DHT22;5906;51.660;6.674;2023-04-15T03:48:32;5.50;99.90
11700;DHT22;5906;51.660;6.674;2023-04-15T03:50:59;5.50;99.90
11700;DHT22;5906;51.660;6.674;2023-04-15T03:53:25;5.50;99.90
11700;DHT22;5906;51.660;6.674;2023-04-15T03:55:52;5.50;99.90
11700;DHT22;5906;51.660;6.674;2023-04-15T03:58:19;5.60;99.90
11700;DHT22;5906;51.660;6.674;2023-04-15T04:00:46;5.50;99.90
11700;DHT22;5906;51.660;6.674;2023-04-15T04:03:13;5.50;99.90
11700;DHT22;5906;51.660;6.674;2023-04-15T04:05:40;5.50;99.90
11700;DHT22;5906;51.660;6.674;2023-04-15T04:08:07;5.50;99.90
11700;DHT22;5906;51.660;6.674;2023-04-15T04:10:33;5.50;99.90
11700;DHT22;5906;51.660;6.674;2023-04-15T04:13:00;5.50;99.90
11700;DHT22;5906;51.660;6.674;2023-04-15T04:15:27;5.50;99.90
11700;DHT22;5906;51.660;6.674;2023-04-15T04:17:54;5.60;99.90
11700;DHT22;5906;51.660;6.674;2023-04-15T04:20:21;5.60;99.90
11700;DHT22;5906;51.660;6.674;2023-04-15T04:22:49;5.60;99.90
11700;DHT22;5906;51.660;6.674;2023-04-15T04:25:16;5.70;99.90
11700;DHT22;5906;51.660;6.674;2023-04-15T04:27:43;5.70;99.90
11700;DHT22;5906;51.660;6.674;2023-04-15T04:30:11;5.80;99.90
11700;DHT22;5906;51.660;6.674;2023-04-15T04:32:37;5.80;99.90
11700;DHT22;5906;51.660;6.674;2023-04-15T04:35:04;5.80;99.90
11700;DHT22;5906;51.660;6.674;2023-04-15T04:37:32;5.90;99.90
11700;DHT22;5906;51.660;6.674;2023-04-15T04:39:59;5.90;99.90
11700;DHT22;5906;51.660;6.674;2023-04-15T04:42:26;6.00;99.90
11700;DHT22;5906;51.660;6.674;2023-04-15T04:44:53;6.00;99.90
11700;DHT22;5906;51.660;6.674;2023-04-15T04:47:20;6.00;99.90
11700;DHT22;5906;51.660;6.674;2023-04-15T04:49:47;6.00;99.90
11700;DHT22;5906;51.660;6.674;2023-04-15T04:52:14;6.00;99.90
11700;DHT22;5906;51.660;6.674;2023-04-15T04:54:40;6.00;99.90
11700;DHT22;5906;51.660;6.674;2023-04-15T04:57:07;5.90;99.90
11700;DHT22;5906;51.660;6.674;2023-04-15T04:59:34;5.90;99.90
11700;DHT22;5906;51.660;6.674;2023-04-15T05:02:01;5.90;99.90
11700;DHT22;5906;51.660;6.674;2023-04-15T05:04:28;5.90;99.90
11700;DHT22;5906;51.660;6.674;2023-04-15T05:06:57;5.90;99.90
11700;DHT22;5906;51.660;6.674;2023-04-15T05:09:25;6.00;99.90
11700;DHT22;5906;51.660;6.674;2023-04-15T05:11:52;5.90;99.90
11700;DHT22;5906;51.660;6.674;2023-04-15T05:14:18;5.90;99.90
11700;DHT22;5906;51.660;6.674;2023-04-15T05:16:48;5.90;99.90
11700;DHT22;5906;51.660;6.674;2023-04-15T05:19:15;5.90;99.90
11700;DHT22;5906;51.660;6.674;2023-04-15T05:21:42;5.90;99.90
11700;DHT22;5906;51.660;6.674;2023-04-15T05:24:08;5.90;99.90
11700;DHT22;5906;51.660;6.674;2023-04-15T05:26:35;5.90;99.90
11700;DHT22;5906;51.660;6.674;2023-04-15T05:29:02;6.00;99.90
11700;DHT22;5906;51.660;6.674;2023-04-15T05:31:29;5.90;99.90
11700;DHT22;5906;51.660;6.674;2023-04-15T05:33:56;6.00;99.90
11700;DHT22;5906;51.660;6.674;2023-04-15T05:36:23;6.00;99.90
11700;DHT22;5906;51.660;6.674;2023-04-15T05:38:49;5.90;99.90
11700;DHT22;5906;51.660;6.674;2023-04-15T05:41:16;5.90;99.90
11700;DHT22;5906;51.660;6.674;2023-04-15T05:43:45;5.90;99.90
11700;DHT22;5906;51.660;6.674;2023-04-15T05:46:12;5.90;99.90
11700;DHT22;5906;51.660;6.674;2023-04-15T05:48:39;6.00;99.90
11700;DHT22;5906;51.660;6.674;2023-04-15T05:51:06;6.00;99.90
11700;DHT22;5906;51.660;6.674;2023-04-15T05:53:33;6.00;99.90
11700;DHT22;5906;51.660;6.674;2023-04-15T05:56:00;6.10;99.90
11700;DHT22;5906;51.660;6.674;2023-04-15T05:58:27;6.10;99.90
11700;DHT22;5906;51.660;6.674;2023-04-15T06:00:53;6.10;99.90
11700;DHT22;5906;51.660;6.674;2023-04-15T06:03:20;6.10;99.90
11700;DHT22;5906;51.660;6.674;2023-04-15T06:05:48;6.20;99.90
11700;DHT22;5906;51.660;6.674;2023-04-15T06:08:15;6.30;99.90
11700;DHT22;5906;51.660;6.674;2023-04-15T06:10:43;6.30;99.90
11700;DHT22;5906;51.660;6.674;2023-04-15T06:13:10;6.40;99.90
11700;DHT22;5906;51.660;6.674;2023-04-15T06:15:36;6.40;99.90
11700;DHT22;5906;51.660;6.674;2023-04-15T06:18:03;6.50;99.90
11700;DHT22;5906;51.660;6.674;2023-04-15T06:20:30;6.60;99.90
11700;DHT22;5906;51.660;6.674;2023-04-15T06:22:57;6.60;99.90
11700;DHT22;5906;51.660;6.674;2023-04-15T06:25:23;6.70;99.90
11700;DHT22;5906;51.660;6.674;2023-04-15T06:27:50;6.80;99.90
11700;DHT22;5906;51.660;6.674;2023-04-15T06:30:17;6.90;99.90
11700;DHT22;5906;51.660;6.674;2023-04-15T06:32:44;7.00;99.90
11700;DHT22;5906;51.660;6.674;2023-04-15T06:35:10;7.20;99.90
11700;DHT22;5906;51.660;6.674;2023-04-15T06:37:37;7.30;99.90
11700;DHT22;5906;51.660;6.674;2023-04-15T06:40:05;7.40;99.90
11700;DHT22;5906;51.660;6.674;2023-04-15T06:42:32;7.60;99.90
11700;DHT22;5906;51.660;6.674;2023-04-15T06:44:59;7.80;99.90
11700;DHT22;5906;51.660;6.674;2023-04-15T06:47:26;7.90;99.90
11700;DHT22;5906;51.660;6.674;2023-04-15T06:49:53;8.20;99.90
11700;DHT22;5906;51.660;6.674;2023-04-15T06:52:20;8.40;99.90
11700;DHT22;5906;51.660;6.674;2023-04-15T06:54:47;8.70;99.90
11700;DHT22;5906;51.660;6.674;2023-04-15T06:57:13;8.90;99.90
11700;DHT22;5906;51.660;6.674;2023-04-15T06:59:40;9.10;99.90
11700;DHT22;5906;51.660;6.674;2023-04-15T07:02:11;9.30;99.90
11700;DHT22;5906;51.660;6.674;2023-04-15T07:04:39;9.50;99.90
11700;DHT22;5906;51.660;6.674;2023-04-15T07:07:06;9.60;99.90
11700;DHT22;5906;51.660;6.674;2023-04-15T07:09:33;9.80;99.90
11700;DHT22;5906;51.660;6.674;2023-04-15T07:12:00;9.90;99.90
11700;DHT22;5906;51.660;6.674;2023-04-15T07:14:26;10.00;99.90
11700;DHT22;5906;51.660;6.674;2023-04-15T07:16:53;10.10;99.90
11700;DHT22;5906;51.660;6.674;2023-04-15T07:19:20;10.20;99.90
11700;DHT22;5906;51.660;6.674;2023-04-15T07:21:47;10.40;99.90
11700;DHT22;5906;51.660;6.674;2023-04-15T07:24:14;10.60;99.90
11700;DHT22;5906;51.660;6.674;2023-04-15T07:26:44;10.70;99.90
11700;DHT22;5906;51.660;6.674;2023-04-15T07:29:11;11.00;99.90
11700;DHT22;5906;51.660;6.674;2023-04-15T07:31:39;11.20;99.90
11700;DHT22;5906;51.660;6.674;2023-04-15T07:34:07;11.40;99.90
11700;DHT22;5906;51.660;6.674;2023-04-15T07:36:34;11.50;99.90
11700;DHT22;5906;51.660;6.674;2023-04-15T07:39:01;11.60;99.90
11700;DHT22;5906;51.660;6.674;2023-04-15T07:41:30;11.80;99.90
11700;DHT22;5906;51.660;6.674;2023-04-15T07:43:57;11.90;99.90
11700;DHT22;5906;51.660;6.674;2023-04-15T07:46:24;11.80;99.90
11700;DHT22;5906;51.660;6.674;2023-04-15T07:48:53;11.90;99.90
11700;DHT22;5906;51.660;6.674;2023-04-15T07:51:20;11.80;99.90
11700;DHT22;5906;51.660;6.674;2023-04-15T07:53:48;11.90;99.90
11700;DHT22;5906;51.660;6.674;2023-04-15T07:56:16;11.70;99.90
11700;DHT22;5906;51.660;6.674;2023-04-15T07:58:43;11.80;99.90
11700;DHT22;5906;51.660;6.674;2023-04-15T08:01:10;11.90;99.90
11700;DHT22;5906;51.660;6.674;2023-04-15T08:03:37;11.80;99.90
11700;DHT22;5906;51.660;6.674;2023-04-15T08:06:05;11.90;99.90
11700;DHT22;5906;51.660;6.674;2023-04-15T08:08:32;12.00;99.90
11700;DHT22;5906;51.660;6.674;2023-04-15T08:10:59;11.90;99.90
11700;DHT22;5906;51.660;6.674;2023-04-15T08:13:26;11.90;99.90
11700;DHT22;5906;51.660;6.674;2023-04-15T08:16:20;11.90;99.90
11700;DHT22;5906;51.660;6.674;2023-04-15T08:18:49;12.00;99.90
11700;DHT22;5906;51.660;6.674;2023-04-15T08:21:17;12.20;99.90
11700;DHT22;5906;51.660;6.674;2023-04-15T08:23:45;12.30;99.90
11700;DHT22;5906;51.660;6.674;2023-04-15T08:26:12;12.50;99.90
11700;DHT22;5906;51.660;6.674;2023-04-15T08:28:41;12.60;99.90
11700;DHT22;5906;51.660;6.674;2023-04-15T08:31:08;12.60;99.90
11700;DHT22;5906;51.660;6.674;2023-04-15T08:33:35;12.80;99.90
11700;DHT22;5906;51.660;6.674;2023-04-15T08:36:03;12.90;99.90
11700;DHT22;5906;51.660;6.674;2023-04-15T08:38:31;12.80;99.90
11700;DHT22;5906;51.660;6.674;2023-04-15T08:41:03;12.50;99.90
11700;DHT22;5906;51.660;6.674;2023-04-15T08:43:34;12.30;99.90
11700;DHT22;5906;51.660;6.674;2023-04-15T08:46:02;12.40;99.90
11700;DHT22;5906;51.660;6.674;2023-04-15T08:48:32;12.50;99.90
11700;DHT22;5906;51.660;6.674;2023-04-15T08:51:00;12.40;99.90
11700;DHT22;5906;51.660;6.674;2023-04-15T08:53:28;12.30;99.90
11700;DHT22;5906;51.660;6.674;2023-04-15T08:55:57;12.40;99.90
11700;DHT22;5906;51.660;6.674;2023-04-15T08:58:26;12.50;99.90
11700;DHT22;5906;51.660;6.674;2023-04-15T09:00:55;12.80;99.90
11700;DHT22;5906;51.660;6.674;2023-04-15T09:03:22;13.10;99.90
11700;DHT22;5906;51.660;6.674;2023-04-15T09:05:51;13.40;99.90
11700;DHT22;5906;51.660;6.674;2023-04-15T09:08:18;13.40;99.90
11700;DHT22;5906;51.660;6.674;2023-04-15T09:10:46;13.40;99.90
11700;DHT22;5906;51.660;6.674;2023-04-15T09:13:13;13.30;99.90
11700;DHT22;5906;51.660;6.674;2023-04-15T09:15:40;13.50;99.90
11700;DHT22;5906;51.660;6.674;2023-04-15T09:18:11;13.50;99.90
11700;DHT22;5906;51.660;6.674;2023-04-15T09:20:40;13.50;99.90
11700;DHT22;5906;51.660;6.674;2023-04-15T09:23:12;13.60;99.90
11700;DHT22;5906;51.660;6.674;2023-04-15T09:25:40;13.80;99.90
11700;DHT22;5906;51.660;6.674;2023-04-15T09:28:08;14.00;99.90
11700;DHT22;5906;51.660;6.674;2023-04-15T09:30:42;13.80;99.90
11700;DHT22;5906;51.660;6.674;2023-04-15T09:33:13;13.90;99.90
11700;DHT22;5906;51.660;6.674;2023-04-15T09:35:40;13.90;99.90
11700;DHT22;5906;51.660;6.674;2023-04-15T09:38:09;13.70;99.90
11700;DHT22;5906;51.660;6.674;2023-04-15T09:40:40;13.80;99.90
11700;DHT22;5906;51.660;6.674;2023-04-15T09:43:08;13.60;99.90
11700;DHT22;5906;51.660;6.674;2023-04-15T09:45:51;13.70;99.90
11700;DHT22;5906;51.660;6.674;2023-04-15T09:48:23;13.80;99.90
11700;DHT22;5906;51.660;6.674;2023-04-15T09:50:57;13.90;99.90
11700;DHT22;5906;51.660;6.674;2023-04-15T09:53:25;14.00;99.90
11700;DHT22;5906;51.660;6.674;2023-04-15T09:55:57;14.00;99.90
11700;DHT22;5906;51.660;6.674;2023-04-15T09:58:30;13.80;99.90
11700;DHT22;5906;51.660;6.674;2023-04-15T10:00:58;13.80;99.90
11700;DHT22;5906;51.660;6.674;2023-04-15T10:03:29;13.70;99.90
11700;DHT22;5906;51.660;6.674;2023-04-15T10:05:59;13.60;99.90
11700;DHT22;5906;51.660;6.674;2023-04-15T10:08:29;13.60;99.90
11700;DHT22;5906;51.660;6.674;2023-04-15T10:10:56;13.70;99.90
11700;DHT22;5906;51.660;6.674;2023-04-15T10:13:25;13.80;99.90
11700;DHT22;5906;51.660;6.674;2023-04-15T10:16:13;14.00;99.90
11700;DHT22;5906;51.660;6.674;2023-04-15T10:18:43;14.20;99.90
11700;DHT22;5906;51.660;6.674;2023-04-15T10:21:10;14.50;99.90
11700;DHT22;5906;51.660;6.674;2023-04-15T10:23:40;14.70;99.90
11700;DHT22;5906;51.660;6.674;2023-04-15T10:26:07;14.80;99.90
11700;DHT22;5906;51.660;6.674;2023-04-15T10:28:35;14.70;99.90
11700;DHT22;5906;51.660;6.674;2023-04-15T10:31:04;14.70;99.90
11700;DHT22;5906;51.660;6.674;2023-04-15T10:33:32;14.60;99.90
11700;DHT22;5906;51.660;6.674;2023-04-15T10:36:00;14.60;99.90
11700;DHT22;5906;51.660;6.674;2023-04-15T10:44:03;14.80;99.90
11700;DHT22;5906;51.660;6.674;2023-04-15T10:46:40;14.90;99.90
11700;DHT22;5906;51.660;6.674;2023-04-15T10:49:23;14.80;99.90
11700;DHT22;5906;51.660;6.674;2023-04-15T10:51:52;14.90;99.90
11700;DHT22;5906;51.660;6.674;2023-04-15T10:57:14;14.50;99.90
11700;DHT22;5906;51.660;6.674;2023-04-15T11:02:46;14.00;99.90
11700;DHT22;5906;51.660;6.674;2023-04-15T11:05:15;14.10;99.90
11700;DHT22;5906;51.660;6.674;2023-04-15T11:12:40;13.90;99.90
11700;DHT22;5906;51.660;6.674;2023-04-15T11:15:31;13.90;99.90
11700;DHT22;5906;51.660;6.674;2023-04-15T11:18:11;13.80;99.90
11700;DHT22;5906;51.660;6.674;2023-04-15T11:20:40;13.80;99.90
11700;DHT22;5906;51.660;6.674;2023-04-15T11:23:08;13.80;99.90
11700;DHT22;5906;51.660;6.674;2023-04-15T11:25:42;13.70;99.90
11700;DHT22;5906;51.660;6.674;2023-04-15T11:28:11;13.90;99.90
11700;DHT22;5906;51.660;6.674;2023-04-15T11:30:39;14.00;99.90
11700;DHT22;5906;51.660;6.674;2023-04-15T11:33:09;13.90;99.90
11700;DHT22;5906;51.660;6.674;2023-04-15T11:35:40;13.80;99.90
11700;DHT22;5906;51.660;6.674;2023-04-15T11:38:11;13.70;99.90
11700;DHT22;5906;51.660;6.674;2023-04-15T11:40:40;13.60;99.90
11700;DHT22;5906;51.660;6.674;2023-04-15T11:43:13;13.60;99.90
11700;DHT22;5906;51.660;6.674;2023-04-15T11:48:35;13.50;99.90
11700;DHT22;5906;51.660;6.674;2023-04-15T11:51:06;13.50;99.90
11700;DHT22;5906;51.660;6.674;2023-04-15T11:56:04;14.00;99.90
11700;DHT22;5906;51.660;6.674;2023-04-15T11:58:33;14.30;99.90
11700;DHT22;5906;51.660;6.674;2023-04-15T12:01:01;14.50;99.90
11700;DHT22;5906;51.660;6.674;2023-04-15T12:03:30;14.70;99.90
11700;DHT22;5906;51.660;6.674;2023-04-15T12:06:23;14.80;99.90
11700;DHT22;5906;51.660;6.674;2023-04-15T12:11:49;14.80;99.90
11700;DHT22;5906;51.660;6.674;2023-04-15T12:14:19;14.70;99.90
11700;DHT22;5906;51.660;6.674;2023-04-15T12:16:50;14.50;99.90
11700;DHT22;5906;51.660;6.674;2023-04-15T12:22:05;13.90;99.90
11700;DHT22;5906;51.660;6.674;2023-04-15T12:24:35;13.80;99.90
11700;DHT22;5906;51.660;6.674;2023-04-15T12:27:04;13.70;99.90
11700;DHT22;5906;51.660;6.674;2023-04-15T12:29:32;13.60;99.90
11700;DHT22;5906;51.660;6.674;2023-04-15T12:32:10;13.80;99.90
11700;DHT22;5906;51.660;6.674;2023-04-15T12:34:48;14.00;99.90
11700;DHT22;5906;51.660;6.674;2023-04-15T12:37:16;14.10;99.90
11700;DHT22;5906;51.660;6.674;2023-04-15T12:39:45;14.30;99.90
11700;DHT22;5906;51.660;6.674;2023-04-15T12:42:15;14.20;99.90
11700;DHT22;5906;51.660;6.674;2023-04-15T12:44:42;14.00;99.90
11700;DHT22;5906;51.660;6.674;2023-04-15T12:47:10;13.80;99.90
11700;DHT22;5906;51.660;6.674;2023-04-15T12:49:38;13.60;99.90
11700;DHT22;5906;51.660;6.674;2023-04-15T12:52:06;13.60;99.90
11700;DHT22;5906;51.660;6.674;2023-04-15T12:54:33;13.50;99.90
11700;DHT22;5906;51.660;6.674;2023-04-15T12:57:01;13.40;99.90
11700;DHT22;5906;51.660;6.674;2023-04-15T12:59:32;13.30;99.90
11700;DHT22;5906;51.660;6.674;2023-04-15T13:02:00;13.30;99.90
11700;DHT22;5906;51.660;6.674;2023-04-15T13:04:28;13.20;99.90
11700;DHT22;5906;51.660;6.674;2023-04-15T13:06:57;13.10;99.90
11700;DHT22;5906;51.660;6.674;2023-04-15T13:09:24;13.00;99.90
11700;DHT22;5906;51.660;6.674;2023-04-15T13:11:51;13.00;99.90
11700;DHT22;5906;51.660;6.674;2023-04-15T13:14:18;12.90;99.90
11700;DHT22;5906;51.660;6.674;2023-04-15T13:16:45;12.90;99.90
11700;DHT22;5906;51.660;6.674;2023-04-15T13:19:12;12.90;99.90
11700;DHT22;5906;51.660;6.674;2023-04-15T13:21:40;13.00;99.90
11700;DHT22;5906;51.660;6.674;2023-04-15T13:24:07;13.10;99.90
11700;DHT22;5906;51.660;6.674;2023-04-15T13:26:35;13.00;99.90
11700;DHT22;5906;51.660;6.674;2023-04-15T13:29:03;13.00;99.90
11700;DHT22;5906;51.660;6.674;2023-04-15T13:31:30;12.90;99.90
11700;DHT22;5906;51.660;6.674;2023-04-15T13:33:58;12.80;99.90
11700;DHT22;5906;51.660;6.674;2023-04-15T13:36:25;12.80;99.90
11700;DHT22;5906;51.660;6.674;2023-04-15T13:38:53;12.80;99.90
11700;DHT22;5906;51.660;6.674;2023-04-15T13:41:20;12.60;99.90
11700;DHT22;5906;51.660;6.674;2023-04-15T13:43:47;12.50;99.90
11700;DHT22;5906;51.660;6.674;2023-04-15T13:46:14;12.50;99.90
11700;DHT22;5906;51.660;6.674;2023-04-15T13:48:41;12.40;99.90
11700;DHT22;5906;51.660;6.674;2023-04-15T13:51:08;12.40;99.90
11700;DHT22;5906;51.660;6.674;2023-04-15T13:53:35;12.40;99.90
11700;DHT22;5906;51.660;6.674;2023-04-15T13:56:08;12.40;99.90
11700;DHT22;5906;51.660;6.674;2023-04-15T13:58:36;12.40;99.90
11700;DHT22;5906;51.660;6.674;2023-04-15T14:01:04;12.30;99.90
11700;DHT22;5906;51.660;6.674;2023-04-15T14:03:36;12.30;99.90
11700;DHT22;5906;51.660;6.674;2023-04-15T14:06:04;12.30;99.90
11700;DHT22;5906;51.660;6.674;2023-04-15T14:08:32;12.30;99.90
11700;DHT22;5906;51.660;6.674;2023-04-15T14:10:59;12.30;99.90
11700;DHT22;5906;51.660;6.674;2023-04-15T14:13:27;12.20;99.90
11700;DHT22;5906;51.660;6.674;2023-04-15T14:15:53;12.20;99.90
11700;DHT22;5906;51.660;6.674;2023-04-15T14:18:21;12.10;99.90
11700;DHT22;5906;51.660;6.674;2023-04-15T14:20:48;12.00;99.90
11700;DHT22;5906;51.660;6.674;2023-04-15T14:23:15;12.00;99.90
11700;DHT22;5906;51.660;6.674;2023-04-15T14:25:42;12.00;99.90
11700;DHT22;5906;51.660;6.674;2023-04-15T14:28:11;12.10;99.90
11700;DHT22;5906;51.660;6.674;2023-04-15T14:30:38;12.10;99.90
11700;DHT22;5906;51.660;6.674;2023-04-15T14:33:05;12.10;99.90
11700;DHT22;5906;51.660;6.674;2023-04-15T14:35:32;12.20;99.90
11700;DHT22;5906;51.660;6.674;2023-04-15T14:37:59;12.20;99.90
11700;DHT22;5906;51.660;6.674;2023-04-15T14:40:26;12.30;99.90
11700;DHT22;5906;51.660;6.674;2023-04-15T14:42:53;12.30;99.90
11700;DHT22;5906;51.660;6.674;2023-04-15T14:45:20;12.20;99.90
11700;DHT22;5906;51.660;6.674;2023-04-15T14:47:47;12.10;99.90
11700;DHT22;5906;51.660;6.674;2023-04-15T14:50:16;12.20;99.90
11700;DHT22;5906;51.660;6.674;2023-04-15T14:52:43;12.20;99.90
11700;DHT22;5906;51.660;6.674;2023-04-15T14:55:11;12.20;99.90
11700;DHT22;5906;51.660;6.674;2023-04-15T14:57:39;12.10;99.90
11700;DHT22;5906;51.660;6.674;2023-04-15T15:00:08;12.00;99.90
11700;DHT22;5906;51.660;6.674;2023-04-15T15:02:37;11.90;99.90
11700;DHT22;5906;51.660;6.674;2023-04-15T15:05:07;12.00;99.90
11700;DHT22;5906;51.660;6.674;2023-04-15T15:07:34;12.00;99.90
11700;DHT22;5906;51.660;6.674;2023-04-15T15:10:03;12.00;99.90
11700;DHT22;5906;51.660;6.674;2023-04-15T15:12:30;11.90;99.90
11700;DHT22;5906;51.660;6.674;2023-04-15T15:14:57;11.90;99.90
11700;DHT22;5906;51.660;6.674;2023-04-15T15:17:24;11.90;99.90
11700;DHT22;5906;51.660;6.674;2023-04-15T15:19:51;11.90;99.90
11700;DHT22;5906;51.660;6.674;2023-04-15T15:22:18;11.70;99.90
11700;DHT22;5906;51.660;6.674;2023-04-15T15:24:47;11.60;99.90
11700;DHT22;5906;51.660;6.674;2023-04-15T15:27:14;11.60;99.90
11700;DHT22;5906;51.660;6.674;2023-04-15T15:29:41;11.50;99.90
11700;DHT22;5906;51.660;6.674;2023-04-15T15:32:07;11.40;99.90
11700;DHT22;5906;51.660;6.674;2023-04-15T15:34:35;11.40;99.90
11700;DHT22;5906;51.660;6.674;2023-04-15T15:37:02;11.40;99.90
11700;DHT22;5906;51.660;6.674;2023-04-15T15:39:29;11.40;99.90
11700;DHT22;5906;51.660;6.674;2023-04-15T15:41:56;11.40;99.90
11700;DHT22;5906;51.660;6.674;2023-04-15T15:44:23;11.40;99.90
11700;DHT22;5906;51.660;6.674;2023-04-15T15:46:50;11.40;99.90
11700;DHT22;5906;51.660;6.674;2023-04-15T15:49:17;11.40;99.90
11700;DHT22;5906;51.660;6.674;2023-04-15T15:51:43;11.30;99.90
11700;DHT22;5906;51.660;6.674;2023-04-15T15:54:11;11.20;99.90
11700;DHT22;5906;51.660;6.674;2023-04-15T15:56:38;11.20;99.90
11700;DHT22;5906;51.660;6.674;2023-04-15T15:59:05;11.20;99.90
11700;DHT22;5906;51.660;6.674;2023-04-15T16:01:32;11.10;99.90
11700;DHT22;5906;51.660;6.674;2023-04-15T16:04:00;11.10;99.90
11700;DHT22;5906;51.660;6.674;2023-04-15T16:06:27;11.10;99.90
11700;DHT22;5906;51.660;6.674;2023-04-15T16:08:54;11.10;99.90
11700;DHT22;5906;51.660;6.674;2023-04-15T16:11:21;11.00;99.90
11700;DHT22;5906;51.660;6.674;2023-04-15T16:13:48;10.90;99.90
11700;DHT22;5906;51.660;6.674;2023-04-15T16:16:15;10.90;99.90
11700;DHT22;5906;51.660;6.674;2023-04-15T16:18:46;10.90;99.90
11700;DHT22;5906;51.660;6.674;2023-04-15T16:21:14;10.90;99.90
11700;DHT22;5906;51.660;6.674;2023-04-15T16:23:41;10.90;99.90
11700;DHT22;5906;51.660;6.674;2023-04-15T16:26:08;10.80;99.90